Terminal Aerodrome Forecast
Issued by NWS Wilmington, NC

Home | Current Version | Previous Version | Text Only | Print | Product List | Glossary On
Versions: 1 2 3 4 5 6 7 8 9 10 11 12 13
000
FTUS42 KILM 291122
TAFFLO
TAF
KFLO 291122Z 2912/3012 VRB03KT P6SM SKC
     FM292100 14008KT P6SM FEW050
     FM300400 14004KT P6SM SCT250=

USA.gov is the U.S. government's official web portal to all federal, state and local government web resources and services.